createdAt,value
2018-03-28T00:00:35.809Z,35.90
2018-03-28T00:03:03.603Z,36.00
2018-03-28T00:05:32.155Z,36.20
2018-03-28T00:07:59.902Z,36.20
2018-03-28T00:10:27.700Z,36.30
2018-03-28T00:12:55.449Z,36.50
2018-03-28T00:15:23.216Z,36.60
2018-03-28T00:17:51.011Z,36.60
2018-03-28T00:20:19.512Z,36.60
2018-03-28T00:22:47.272Z,36.60
2018-03-28T00:25:15.052Z,36.50
2018-03-28T00:27:42.816Z,36.40
2018-03-28T00:30:10.557Z,36.20
2018-03-28T00:32:38.339Z,36.00
2018-03-28T00:35:06.104Z,35.80
2018-03-28T00:37:33.886Z,35.50
2018-03-28T00:40:01.832Z,35.50
2018-03-28T00:42:29.629Z,35.30
2018-03-28T00:44:58.319Z,35.80
2018-03-28T00:47:26.081Z,35.00
2018-03-28T00:49:53.897Z,34.90
2018-03-28T00:52:21.669Z,34.80
2018-03-28T00:54:49.423Z,34.70
2018-03-28T00:57:17.196Z,34.70
2018-03-28T00:59:44.937Z,34.60
2018-03-28T01:02:12.696Z,34.60
2018-03-28T01:04:40.457Z,34.60
2018-03-28T01:07:08.233Z,34.60
2018-03-28T01:09:36.010Z,34.60
2018-03-28T01:12:03.808Z,34.60
2018-03-28T01:14:31.563Z,34.60
2018-03-28T01:17:00.088Z,34.70
2018-03-28T01:19:27.860Z,34.60
2018-03-28T01:21:55.629Z,34.60
2018-03-28T01:24:23.361Z,34.70
2018-03-28T01:26:51.916Z,34.90
2018-03-28T01:29:19.675Z,34.80
2018-03-28T01:31:47.437Z,34.80
2018-03-28T01:34:15.220Z,34.90
2018-03-28T01:36:42.993Z,35.00
2018-03-28T01:39:11.529Z,35.10
2018-03-28T01:41:39.299Z,35.00
2018-03-28T01:44:07.172Z,35.10
2018-03-28T01:46:34.926Z,35.20
2018-03-28T01:49:02.751Z,35.30
2018-03-28T01:51:30.515Z,35.40
2018-03-28T01:53:58.277Z,35.40
2018-03-28T01:56:26.057Z,35.40
2018-03-28T01:58:53.805Z,35.40
2018-03-28T02:01:21.571Z,36.10
2018-03-28T02:03:49.384Z,35.40
2018-03-28T02:06:17.208Z,35.40
2018-03-28T02:08:44.992Z,35.30
2018-03-28T02:11:12.754Z,35.30
2018-03-28T02:13:40.518Z,35.20
2018-03-28T02:16:08.554Z,35.20
2018-03-28T02:18:36.335Z,35.10
2018-03-28T02:21:04.082Z,35.00
2018-03-28T02:23:31.869Z,35.00
2018-03-28T02:26:00.453Z,35.00
2018-03-28T02:28:28.197Z,35.00
2018-03-28T02:30:56.817Z,34.90
2018-03-28T02:33:24.586Z,34.90
2018-03-28T02:35:52.367Z,34.90
2018-03-28T02:38:20.115Z,34.90
2018-03-28T02:40:47.872Z,34.90
2018-03-28T02:43:15.621Z,34.90
2018-03-28T02:45:43.385Z,34.90
2018-03-28T02:48:11.165Z,34.90
2018-03-28T02:50:38.937Z,34.80
2018-03-28T02:53:06.689Z,34.80
2018-03-28T02:55:34.422Z,34.70
2018-03-28T02:58:02.175Z,34.80
2018-03-28T03:00:30.037Z,34.70
2018-03-28T03:02:57.804Z,35.30
2018-03-28T03:05:25.585Z,34.70
2018-03-28T03:07:53.329Z,34.60
2018-03-28T03:10:21.095Z,34.60
2018-03-28T03:12:48.840Z,34.60
2018-03-28T03:15:16.639Z,35.20
2018-03-28T03:17:44.422Z,34.60
2018-03-28T03:20:12.203Z,34.80
2018-03-28T03:22:39.960Z,35.00
2018-03-28T03:25:07.731Z,35.10
2018-03-28T03:27:36.245Z,35.30
2018-03-28T03:30:04.039Z,35.20
2018-03-28T03:32:31.781Z,35.30
2018-03-28T03:34:59.578Z,35.40
2018-03-28T03:37:27.341Z,35.40
2018-03-28T03:39:55.104Z,35.40
2018-03-28T03:42:22.917Z,35.40
2018-03-28T03:44:50.692Z,35.50
2018-03-28T03:47:18.684Z,35.50
2018-03-28T03:49:46.488Z,35.50
2018-03-28T03:52:15.017Z,35.30
2018-03-28T03:54:42.783Z,35.30
2018-03-28T03:57:10.536Z,35.40
2018-03-28T03:59:39.032Z,35.60
2018-03-28T04:02:06.797Z,35.60
2018-03-28T04:04:34.564Z,35.60
2018-03-28T04:07:02.328Z,35.60
2018-03-28T04:09:30.105Z,35.60
2018-03-28T04:11:57.858Z,35.60
2018-03-28T04:14:25.563Z,35.60
2018-03-28T04:16:53.232Z,35.70
2018-03-28T04:19:21.656Z,35.70
2018-03-28T04:21:49.320Z,35.70
2018-03-28T04:24:16.974Z,35.60
2018-03-28T04:26:44.636Z,35.60
2018-03-28T04:29:12.305Z,35.50
2018-03-28T04:31:39.991Z,35.40
2018-03-28T04:34:08.434Z,35.00
2018-03-28T04:36:36.128Z,35.00
2018-03-28T04:39:03.902Z,34.80
2018-03-28T04:41:31.583Z,34.70
2018-03-28T04:44:00.116Z,34.50
2018-03-28T04:46:27.774Z,34.40
2018-03-28T04:48:55.450Z,34.50
2018-03-28T04:51:23.116Z,34.50
2018-03-28T04:53:50.798Z,34.40
2018-03-28T04:56:19.265Z,34.30
2018-03-28T04:58:46.954Z,34.20
2018-03-28T05:01:15.405Z,34.90
2018-03-28T05:03:43.082Z,34.30
2018-03-28T05:06:10.797Z,34.30
2018-03-28T05:08:38.474Z,34.30
2018-03-28T05:11:06.152Z,34.40
2018-03-28T05:13:33.812Z,34.40
2018-03-28T05:16:01.504Z,34.40
2018-03-28T05:18:29.173Z,34.40
2018-03-28T05:20:56.834Z,34.30
2018-03-28T05:23:24.525Z,34.10
2018-03-28T05:25:52.200Z,34.10
2018-03-28T05:28:19.844Z,34.10
2018-03-28T05:30:47.511Z,34.10
2018-03-28T05:33:15.209Z,34.10
2018-03-28T05:35:43.681Z,34.30
2018-03-28T05:38:12.126Z,34.40
2018-03-28T05:40:39.786Z,34.30
2018-03-28T05:43:07.458Z,34.40
2018-03-28T05:45:35.127Z,34.60
2018-03-28T05:48:02.818Z,34.50
2018-03-28T05:50:31.335Z,34.70
2018-03-28T05:52:58.969Z,34.70
2018-03-28T05:55:26.643Z,34.70
2018-03-28T05:57:54.283Z,34.70
2018-03-28T06:00:22.715Z,34.70
2018-03-28T06:02:50.402Z,34.70
2018-03-28T06:05:18.055Z,34.70
2018-03-28T06:07:45.711Z,34.80
2018-03-28T06:10:13.447Z,35.10
2018-03-28T06:12:41.118Z,35.10
2018-03-28T06:15:08.780Z,35.10
2018-03-28T06:17:36.506Z,35.10
2018-03-28T06:20:04.301Z,35.10
2018-03-28T06:22:31.965Z,35.10
2018-03-28T06:25:02.223Z,35.10
2018-03-28T06:27:30.663Z,35.30
2018-03-28T06:29:59.335Z,35.30
2018-03-28T06:32:27.020Z,35.30
2018-03-28T06:34:54.669Z,35.30
2018-03-28T06:37:23.088Z,35.40
2018-03-28T06:39:51.694Z,35.50
2018-03-28T06:42:19.399Z,35.40
2018-03-28T06:44:47.081Z,35.50
2018-03-28T06:47:14.758Z,35.50
2018-03-28T06:49:42.539Z,35.50
2018-03-28T06:52:10.270Z,35.60
2018-03-28T06:54:37.970Z,35.70
2018-03-28T06:57:05.626Z,36.40
2018-03-28T06:59:33.334Z,35.90
2018-03-28T07:02:00.979Z,35.80
2018-03-28T07:04:28.625Z,35.80
2018-03-28T07:06:56.348Z,35.90
2018-03-28T07:09:24.886Z,36.10
2018-03-28T07:11:53.376Z,36.60
2018-03-28T07:14:21.038Z,36.10
2018-03-28T07:16:48.716Z,36.10
2018-03-28T07:19:16.367Z,36.10
2018-03-28T07:21:44.032Z,36.00
2018-03-28T07:24:11.712Z,36.00
2018-03-28T07:26:39.510Z,35.90
2018-03-28T07:29:07.191Z,36.00
2018-03-28T07:31:34.862Z,36.10
2018-03-28T07:34:02.522Z,36.10
2018-03-28T07:36:30.179Z,36.20
2018-03-28T07:38:58.623Z,36.30
2018-03-28T07:41:26.271Z,36.30
2018-03-28T07:43:54.768Z,36.50
2018-03-28T07:46:22.462Z,36.50
2018-03-28T07:48:50.127Z,36.70
2018-03-28T07:51:17.816Z,36.80
2018-03-28T07:53:45.492Z,36.90
2018-03-28T07:56:13.180Z,37.00
2018-03-28T07:58:40.855Z,37.10
2018-03-28T08:01:08.624Z,37.20
2018-03-28T08:03:36.272Z,37.30
2018-03-28T08:06:04.722Z,37.50
2018-03-28T08:08:32.390Z,37.50
2018-03-28T08:11:00.074Z,37.50
2018-03-28T08:13:27.732Z,37.60
2018-03-28T08:15:56.176Z,37.90
2018-03-28T08:18:24.595Z,38.10
2018-03-28T08:20:52.266Z,38.00
2018-03-28T08:23:19.939Z,38.30
2018-03-28T08:25:47.617Z,38.60
2018-03-28T08:28:15.313Z,38.90
2018-03-28T08:30:43.022Z,39.10
2018-03-28T08:33:10.680Z,39.20
2018-03-28T08:35:38.327Z,39.30
2018-03-28T08:38:06.000Z,39.40
2018-03-28T08:40:33.690Z,39.40
2018-03-28T08:43:02.114Z,39.60
2018-03-28T08:45:29.784Z,39.50
2018-03-28T08:47:57.458Z,39.60
2018-03-28T08:50:25.107Z,39.70
2018-03-28T08:52:52.833Z,39.80
2018-03-28T08:55:20.498Z,40.00
2018-03-28T08:57:48.180Z,40.20
2018-03-28T09:00:15.853Z,40.40
2018-03-28T09:02:43.507Z,40.70
2018-03-28T09:05:11.179Z,40.70
2018-03-28T09:07:38.862Z,40.80
2018-03-28T09:10:06.554Z,40.90
2018-03-28T09:12:34.971Z,40.80
2018-03-28T09:15:03.570Z,40.80
2018-03-28T09:17:31.224Z,40.80
2018-03-28T09:19:58.916Z,40.80
2018-03-28T09:22:27.395Z,41.10
2018-03-28T09:24:55.069Z,41.00
2018-03-28T09:27:23.487Z,41.20
2018-03-28T09:29:51.174Z,41.10
2018-03-28T09:32:18.832Z,41.30
2018-03-28T09:34:46.514Z,41.40
2018-03-28T09:37:14.202Z,41.30
2018-03-28T09:39:41.897Z,41.40
2018-03-28T09:42:09.574Z,41.30
2018-03-28T09:44:37.259Z,41.40
2018-03-28T09:47:04.915Z,41.50
2018-03-28T09:49:32.598Z,41.60
2018-03-28T09:52:01.028Z,41.90
2018-03-28T09:54:28.687Z,41.90
2018-03-28T09:56:56.366Z,42.00
2018-03-28T09:59:24.078Z,42.10
2018-03-28T10:01:57.348Z,42.10
2018-03-28T10:04:26.696Z,42.10
2018-03-28T10:06:54.359Z,42.10
2018-03-28T10:09:22.051Z,42.10
2018-03-28T10:11:49.719Z,42.10
2018-03-28T10:14:17.389Z,42.40
2018-03-28T10:16:45.842Z,41.90
2018-03-28T10:19:13.498Z,41.80
2018-03-28T10:21:41.197Z,42.00
2018-03-28T10:24:09.828Z,41.50
2018-03-28T10:26:37.502Z,41.50
2018-03-28T10:29:05.179Z,41.60
2018-03-28T10:31:32.832Z,41.70
2018-03-28T10:34:00.581Z,41.70
2018-03-28T10:36:28.252Z,41.50
2018-03-28T10:38:56.736Z,41.70
2018-03-28T10:41:24.407Z,41.70
2018-03-28T10:43:52.057Z,41.80
2018-03-28T10:46:19.782Z,41.70
2018-03-28T10:48:47.466Z,41.60
2018-03-28T10:51:15.128Z,41.60
2018-03-28T10:53:43.260Z,41.50
2018-03-28T10:56:12.582Z,41.50
2018-03-28T10:58:40.510Z,41.40
2018-03-28T11:01:08.201Z,41.40
2018-03-28T11:03:35.879Z,41.60
2018-03-28T11:06:03.588Z,42.60
2018-03-28T11:08:32.018Z,41.80
2018-03-28T11:10:59.699Z,41.70
2018-03-28T11:13:28.169Z,41.60
2018-03-28T11:15:55.821Z,41.60
2018-03-28T11:18:23.474Z,41.60
2018-03-28T11:20:51.246Z,41.70
2018-03-28T11:23:18.954Z,41.50
2018-03-28T11:25:47.489Z,40.80
2018-03-28T11:28:15.187Z,40.80
2018-03-28T11:30:42.841Z,40.80
2018-03-28T11:33:10.492Z,40.80
2018-03-28T11:35:38.273Z,40.50
2018-03-28T11:38:06.705Z,40.60
2018-03-28T11:40:34.362Z,40.60
2018-03-28T11:43:02.030Z,39.90
2018-03-28T11:45:29.826Z,39.70
2018-03-28T11:47:57.490Z,39.70
2018-03-28T11:50:25.179Z,39.90
2018-03-28T11:52:52.949Z,40.10
2018-03-28T11:55:21.414Z,40.30
2018-03-28T11:57:49.851Z,40.20
2018-03-28T12:00:22.342Z,40.20
2018-03-28T12:02:50.028Z,40.20
2018-03-28T12:05:18.456Z,40.40
2018-03-28T12:07:46.136Z,40.30
2018-03-28T12:10:13.802Z,40.50
2018-03-28T12:12:41.453Z,40.60
2018-03-28T12:15:09.132Z,40.70
2018-03-28T12:17:36.789Z,40.40
2018-03-28T12:20:04.463Z,40.10
2018-03-28T12:22:32.877Z,39.90
2018-03-28T12:25:00.556Z,39.90
2018-03-28T12:27:28.258Z,40.00
2018-03-28T12:29:56.671Z,40.10
2018-03-28T12:32:24.354Z,40.10
2018-03-28T12:34:52.031Z,40.00
2018-03-28T12:37:19.710Z,40.10
2018-03-28T12:39:48.170Z,40.80
2018-03-28T12:42:15.870Z,40.10
2018-03-28T12:44:44.313Z,40.30
2018-03-28T12:47:11.963Z,40.30
2018-03-28T12:49:39.744Z,40.30
2018-03-28T12:52:07.388Z,40.30
2018-03-28T12:54:35.042Z,40.20
2018-03-28T12:57:02.712Z,40.10
2018-03-28T12:59:30.362Z,40.30
2018-03-28T13:01:58.046Z,40.40
2018-03-28T13:04:25.723Z,40.50
2018-03-28T13:06:54.163Z,41.00
2018-03-28T13:09:21.855Z,40.90
2018-03-28T13:11:49.548Z,41.10
2018-03-28T13:14:17.214Z,41.20
2018-03-28T13:16:44.860Z,41.40
2018-03-28T13:19:13.275Z,41.40
2018-03-28T13:21:40.953Z,41.20
2018-03-28T13:24:08.649Z,41.50
2018-03-28T13:26:37.083Z,41.60
2018-03-28T13:29:04.757Z,42.20
2018-03-28T13:31:32.500Z,41.60
2018-03-28T13:34:00.269Z,41.60
2018-03-28T13:36:28.036Z,41.60
2018-03-28T13:38:55.793Z,41.70
2018-03-28T13:41:23.632Z,41.80
2018-03-28T13:43:51.427Z,41.80
2018-03-28T13:46:19.195Z,41.90
2018-03-28T13:48:46.964Z,41.70
2018-03-28T13:51:14.721Z,41.70
2018-03-28T13:53:42.496Z,41.80
2018-03-28T13:56:10.241Z,41.80
2018-03-28T13:58:38.007Z,41.90
2018-03-28T14:01:05.796Z,41.90
2018-03-28T14:03:34.304Z,42.00
2018-03-28T14:06:02.072Z,42.00
2018-03-28T14:08:29.875Z,42.00
2018-03-28T14:10:57.622Z,42.00
2018-03-28T14:13:25.420Z,42.00
2018-03-28T14:15:53.181Z,42.00
2018-03-28T14:18:20.996Z,42.20
2018-03-28T14:20:48.804Z,42.10
2018-03-28T14:23:16.565Z,42.10
2018-03-28T14:25:44.327Z,42.10
2018-03-28T14:28:12.104Z,41.90
2018-03-28T14:30:39.914Z,42.00
2018-03-28T14:33:07.642Z,42.00
2018-03-28T14:35:36.196Z,41.80
2018-03-28T14:38:03.885Z,41.80
2018-03-28T14:40:31.548Z,41.80
2018-03-28T14:42:59.211Z,42.30
2018-03-28T14:45:27.688Z,41.60
2018-03-28T14:47:55.358Z,41.50
2018-03-28T14:50:23.767Z,41.50
2018-03-28T14:52:51.431Z,41.50
2018-03-28T14:55:19.081Z,41.60
2018-03-28T14:57:46.840Z,41.60
2018-03-28T15:00:14.616Z,41.60
2018-03-28T15:02:42.367Z,41.70
2018-03-28T15:05:10.125Z,41.80
2018-03-28T15:07:37.948Z,41.90
2018-03-28T15:10:05.706Z,42.00
2018-03-28T15:12:33.473Z,42.10
2018-03-28T15:15:02.010Z,42.20
2018-03-28T15:17:29.773Z,42.10
2018-03-28T15:19:57.544Z,42.20
2018-03-28T15:22:25.290Z,42.20
2018-03-28T15:24:53.047Z,42.10
2018-03-28T15:27:20.824Z,42.20
2018-03-28T15:29:48.588Z,42.20
2018-03-28T15:32:16.356Z,42.20
2018-03-28T15:34:44.121Z,42.10
2018-03-28T15:37:11.889Z,42.30
2018-03-28T15:39:39.618Z,42.40
2018-03-28T15:42:07.397Z,42.40
2018-03-28T15:44:35.189Z,42.40
2018-03-28T15:47:02.950Z,42.50
2018-03-28T15:49:30.742Z,42.40
2018-03-28T15:51:59.257Z,42.70
2018-03-28T15:54:27.024Z,42.50
2018-03-28T15:56:54.776Z,42.70
2018-03-28T15:59:22.529Z,42.70
2018-03-28T16:01:51.061Z,42.70
2018-03-28T16:04:18.854Z,42.70
2018-03-28T16:06:46.636Z,42.70
2018-03-28T16:09:14.428Z,42.70
2018-03-28T16:11:42.318Z,42.70
2018-03-28T16:14:10.877Z,42.60
2018-03-28T16:16:38.648Z,42.60
2018-03-28T16:19:06.508Z,42.60
2018-03-28T16:21:35.014Z,42.50
2018-03-28T16:24:02.827Z,42.50
2018-03-28T16:26:30.641Z,42.50
2018-03-28T16:28:58.392Z,42.50
2018-03-28T16:31:26.181Z,42.60
2018-03-28T16:33:53.948Z,42.60
2018-03-28T16:36:21.714Z,42.60
2018-03-28T16:38:49.507Z,42.70
2018-03-28T16:41:17.277Z,42.70
2018-03-28T16:43:45.025Z,42.70
2018-03-28T16:46:13.556Z,42.80
2018-03-28T16:48:41.347Z,42.80
2018-03-28T16:51:10.010Z,42.90
2018-03-28T16:53:37.807Z,42.90
2018-03-28T16:56:06.321Z,42.90
2018-03-28T16:58:34.060Z,43.00
2018-03-28T17:01:03.182Z,43.00
2018-03-28T17:03:30.931Z,42.90
2018-03-28T17:05:58.698Z,43.00
2018-03-28T17:08:26.448Z,43.00
2018-03-28T17:10:54.203Z,43.00
2018-03-28T17:13:22.791Z,43.30
2018-03-28T17:15:51.323Z,43.40
2018-03-28T17:18:19.079Z,43.30
2018-03-28T17:20:46.955Z,43.60
2018-03-28T17:23:14.704Z,43.70
2018-03-28T17:25:42.482Z,43.90
2018-03-28T17:28:10.243Z,44.00
2018-03-28T17:30:38.043Z,44.10
2018-03-28T17:33:06.572Z,44.10
2018-03-28T17:35:34.321Z,44.20
2018-03-28T17:38:02.091Z,44.20
2018-03-28T17:40:29.837Z,44.30
2018-03-28T17:42:57.590Z,44.30
2018-03-28T17:45:25.358Z,44.30
2018-03-28T17:47:53.120Z,44.40
2018-03-28T17:50:20.857Z,44.40
2018-03-28T17:52:49.419Z,44.50
2018-03-28T17:55:17.204Z,44.50
2018-03-28T17:57:45.770Z,44.50
2018-03-28T18:00:13.521Z,44.40
2018-03-28T18:02:41.390Z,44.50
2018-03-28T18:05:09.188Z,44.70
2018-03-28T18:07:36.975Z,44.90
2018-03-28T18:10:04.747Z,45.00
2018-03-28T18:12:32.512Z,45.00
2018-03-28T18:15:00.254Z,45.10
2018-03-28T18:17:28.033Z,45.00
2018-03-28T18:19:55.776Z,45.00
2018-03-28T18:22:23.529Z,45.00
2018-03-28T18:24:52.045Z,44.90
2018-03-28T18:27:19.895Z,44.90
2018-03-28T18:29:47.683Z,44.90
2018-03-28T18:32:16.220Z,44.90
2018-03-28T18:34:45.234Z,44.80
2018-03-28T18:37:12.977Z,44.80
2018-03-28T18:39:40.795Z,44.80
2018-03-28T18:42:08.539Z,44.90
2018-03-28T18:44:36.285Z,44.80
2018-03-28T18:47:04.086Z,44.80
2018-03-28T18:49:31.849Z,44.70
2018-03-28T18:51:59.622Z,44.60
2018-03-28T18:54:27.426Z,44.50
2018-03-28T18:56:55.242Z,44.30
2018-03-28T18:59:23.008Z,44.70
2018-03-28T19:01:50.784Z,44.00
2018-03-28T19:04:18.529Z,43.90
2018-03-28T19:06:46.288Z,44.50
2018-03-28T19:09:14.073Z,43.90
2018-03-28T19:11:41.868Z,43.80
2018-03-28T19:14:09.638Z,43.80
2018-03-28T19:16:37.445Z,43.70
2018-03-28T19:19:05.225Z,43.70
2018-03-28T19:21:32.989Z,43.60
2018-03-28T19:24:00.753Z,43.60
2018-03-28T19:26:28.597Z,43.60
2018-03-28T19:28:56.350Z,43.60
2018-03-28T19:31:24.097Z,43.50
2018-03-28T19:33:51.895Z,43.50
2018-03-28T19:36:19.655Z,43.40
2018-03-28T19:38:47.425Z,43.40
2018-03-28T19:41:15.994Z,43.40
2018-03-28T19:43:43.757Z,43.40
2018-03-28T19:46:11.500Z,43.30
2018-03-28T19:48:39.190Z,43.10
2018-03-28T19:51:06.874Z,43.10
2018-03-28T19:53:34.550Z,43.00
2018-03-28T19:56:02.988Z,43.00
2018-03-28T19:58:30.687Z,43.00
2018-03-28T20:00:59.121Z,43.10
2018-03-28T20:03:26.764Z,43.00
2018-03-28T20:05:54.444Z,43.10
2018-03-28T20:08:22.097Z,43.10
2018-03-28T20:10:49.775Z,43.10
2018-03-28T20:13:18.244Z,43.60
2018-03-28T20:15:46.843Z,43.70
2018-03-28T20:18:16.675Z,43.70
2018-03-28T20:20:45.177Z,43.80
2018-03-28T20:23:12.929Z,44.40
2018-03-28T20:25:40.707Z,43.60
2018-03-28T20:28:08.473Z,43.50
2018-03-28T20:30:36.223Z,43.60
2018-03-28T20:33:04.005Z,43.60
2018-03-28T20:35:31.793Z,43.50
2018-03-28T20:37:59.556Z,43.50
2018-03-28T20:40:27.346Z,43.60
2018-03-28T20:42:55.110Z,43.60
2018-03-28T20:45:23.640Z,43.50
2018-03-28T20:47:51.407Z,43.50
2018-03-28T20:50:19.199Z,43.40
2018-03-28T20:52:46.958Z,43.40
2018-03-28T20:55:14.701Z,43.40
2018-03-28T20:57:48.560Z,43.30
2018-03-28T21:00:18.095Z,43.40
2018-03-28T21:02:45.831Z,43.30
2018-03-28T21:05:14.387Z,43.40
2018-03-28T21:07:44.028Z,43.30
2018-03-28T21:10:11.805Z,43.40
2018-03-28T21:12:39.562Z,43.40
2018-03-28T21:15:07.296Z,43.40
2018-03-28T21:17:35.850Z,43.40
2018-03-28T21:20:03.677Z,43.30
2018-03-28T21:22:31.436Z,43.30
2018-03-28T21:24:59.172Z,43.20
2018-03-28T21:27:27.734Z,43.10
2018-03-28T21:29:55.493Z,43.10
2018-03-28T21:32:23.316Z,43.00
2018-03-28T21:34:51.102Z,42.90
2018-03-28T21:37:18.880Z,42.80
2018-03-28T21:39:46.656Z,42.90
2018-03-28T21:42:14.507Z,42.90
2018-03-28T21:44:42.250Z,43.50
2018-03-28T21:47:10.012Z,42.90
2018-03-28T21:49:37.758Z,42.80
2018-03-28T21:52:05.508Z,42.70
2018-03-28T21:54:33.294Z,42.60
2018-03-28T21:57:01.041Z,42.50
2018-03-28T21:59:28.922Z,42.40
2018-03-28T22:01:56.711Z,42.40
2018-03-28T22:04:24.510Z,42.30
2018-03-28T22:09:27.191Z,42.70
2018-03-28T22:11:54.938Z,42.00
2018-03-28T22:14:22.728Z,42.00
2018-03-28T22:16:51.247Z,41.90
2018-03-28T22:19:18.988Z,41.90
2018-03-28T22:21:46.728Z,41.90
2018-03-28T22:24:15.324Z,42.20
2018-03-28T22:26:43.888Z,42.20
2018-03-28T22:29:12.393Z,42.40
2018-03-28T22:31:40.201Z,42.90
2018-03-28T22:34:07.951Z,42.40
2018-03-28T22:36:35.711Z,42.40
2018-03-28T22:39:03.582Z,42.50
2018-03-28T22:41:31.341Z,42.40
2018-03-28T22:43:59.082Z,42.40
2018-03-28T22:46:27.501Z,42.30
2018-03-28T22:48:55.306Z,42.30
2018-03-28T22:51:23.841Z,42.30
2018-03-28T22:53:51.611Z,42.30
2018-03-28T22:56:19.378Z,42.20
2018-03-28T22:58:47.158Z,42.20
2018-03-28T23:01:14.908Z,42.20
2018-03-28T23:03:42.684Z,42.10
2018-03-28T23:06:10.476Z,42.00
2018-03-28T23:08:38.271Z,42.00
2018-03-28T23:11:06.091Z,42.00
2018-03-28T23:13:35.099Z,42.10
2018-03-28T23:16:02.909Z,42.10
2018-03-28T23:18:30.821Z,42.10
2018-03-28T23:20:59.370Z,42.10
2018-03-28T23:23:27.164Z,42.10
2018-03-28T23:25:55.853Z,42.30
2018-03-28T23:28:24.362Z,42.40
2018-03-28T23:30:52.113Z,42.30
2018-03-28T23:33:19.889Z,42.30
2018-03-28T23:35:47.628Z,42.40
2018-03-28T23:38:15.441Z,42.40
2018-03-28T23:40:43.204Z,42.50
2018-03-28T23:43:10.979Z,42.60
2018-03-28T23:45:38.709Z,42.70
2018-03-28T23:48:06.466Z,42.70
2018-03-28T23:50:34.239Z,42.80
2018-03-28T23:53:02.003Z,42.90
2018-03-28T23:55:29.746Z,43.00
2018-03-28T23:57:57.509Z,43.00
